Time;durP1;ratioP1;P1;durP2;ratioP2;P2;SDS_P1;SDS_P2;PMS_P1;PMS_P2;Temp;Humidity;BMP_temperature;BMP_pressure;BME280_temperature;BME280_humidity;BME280_pressure;Samples;Min_cycle;Max_cycle;Signal;HPM_P1;HPM_P2
2022/08/17 00:02:19;;;;;;;;;;;;;;;19.56;59.44;99624.78;5071322;28;19929;-83
2022/08/17 00:04:53;;;;;;;;;;;;;;;19.51;59.28;99622.91;5070533;28;20148;-83
2022/08/17 00:07:20;;;;;;;;;;;;;;;19.48;59.55;99624.31;5070132;28;19928;-82
2022/08/17 00:09:47;;;;;;;;;;;;;;;19.45;59.69;99622.16;5071446;28;19967;-82
2022/08/17 00:12:14;;;;;;;;;;;;;;;19.42;59.60;99617.28;5070679;28;19928;-83
2022/08/17 00:15:02;;;;;;;;;;;;;;;19.40;59.83;99619.47;5069602;28;19964;-81
2022/08/17 00:17:29;;;;;;;;;;;;;;;19.40;59.60;99614.00;5071231;28;20414;-83
2022/08/17 00:19:56;;;;;;;;;;;;;;;19.40;59.73;99605.78;5071235;28;20290;-82
2022/08/17 00:22:25;;;;;;;;;;;;;;;19.39;59.72;99611.53;5071187;28;20358;-83
2022/08/17 00:25:04;;;;;;;;;;;;;;;19.38;59.78;99616.19;5070172;28;19951;-83
2022/08/17 00:27:31;;;;;;;;;;;;;;;19.35;59.84;99608.56;5070055;28;19929;-83
2022/08/17 00:29:58;;;;;;;;;;;;;;;19.33;60.02;99618.19;5071248;28;19960;-83
2022/08/17 00:32:25;;;;;;;;;;;;;;;19.29;60.07;99617.91;5069601;28;19928;-83
2022/08/17 00:35:14;;;;;;;;;;;;;;;19.29;60.20;99617.91;5071268;28;20027;-84
2022/08/17 00:37:40;;;;;;;;;;;;;;;19.31;60.23;99612.16;5069606;28;19928;-83
2022/08/17 00:40:09;;;;;;;;;;;;;;;19.30;59.96;99613.28;5070934;28;19993;-83
2022/08/17 00:42:36;;;;;;;;;;;;;;;19.27;59.91;99612.75;5071127;28;20011;-83
2022/08/17 00:45:04;;;;;;;;;;;;;;;19.26;60.23;99615.75;5071258;28;19932;-83
2022/08/17 00:47:30;;;;;;;;;;;;;;;19.29;60.12;99617.91;5071334;28;19928;-83
2022/08/17 00:49:58;;;;;;;;;;;;;;;19.28;59.90;99606.16;5070095;28;19939;-84
2022/08/17 00:52:27;;;;;;;;;;;;;;;19.29;60.04;99606.97;5071254;28;19928;-83
2022/08/17 00:54:54;;;;;;;;;;;;;;;19.35;59.83;99602.28;5069954;28;19928;-83
2022/08/17 00:57:23;;;;;;;;;;;;;;;19.40;59.58;99605.78;5053001;28;19964;-83
2022/08/17 00:59:55;;;;;;;;;;;;;;;19.46;59.56;99607.34;5069873;28;20357;-84
2022/08/17 01:02:31;;;;;;;;;;;;;;;19.51;59.30;99611.16;5070742;28;19974;-83
2022/08/17 01:05:15;;;;;;;;;;;;;;;19.55;59.23;99606.75;5069840;28;19932;-83
2022/08/17 01:07:44;;;;;;;;;;;;;;;19.57;59.17;99610.84;5069830;28;19994;-82
2022/08/17 01:10:11;;;;;;;;;;;;;;;19.55;59.41;99595.81;5069793;28;19928;-82
2022/08/17 01:13:02;;;;;;;;;;;;;;;19.51;59.57;99598.28;5069707;28;19935;-84
2022/08/17 01:15:29;;;;;;;;;;;;;;;19.42;59.43;99595.38;5070727;28;19929;-83
2022/08/17 01:17:56;;;;;;;;;;;;;;;19.37;59.55;99592.69;5069736;28;19990;-83
2022/08/17 01:20:23;;;;;;;;;;;;;;;19.32;59.65;99595.47;5069295;28;19935;-83
2022/08/17 01:22:50;;;;;;;;;;;;;;;19.30;59.46;99583.19;5071028;28;19928;-82
2022/08/17 01:25:17;;;;;;;;;;;;;;;19.26;59.65;99589.22;5070935;28;20377;-82
2022/08/17 01:27:44;;;;;;;;;;;;;;;19.24;59.49;99587.88;5073986;28;20334;-82
2022/08/17 01:30:12;;;;;;;;;;;;;;;19.19;59.63;99591.47;5073322;28;20314;-82
2022/08/17 01:32:59;;;;;;;;;;;;;;;19.16;59.68;99583.81;5074353;28;19929;-81
2022/08/17 01:35:26;;;;;;;;;;;;;;;19.10;59.93;99582.25;5073255;28;19935;-83
2022/08/17 01:37:52;;;;;;;;;;;;;;;19.06;60.05;99586.66;5075268;28;19937;-82
2022/08/17 01:40:32;;;;;;;;;;;;;;;19.00;60.12;99582.34;5075479;28;20027;-82
2022/08/17 01:43:00;;;;;;;;;;;;;;;18.94;60.33;99583.47;5073431;28;19928;-82
2022/08/17 01:45:31;;;;;;;;;;;;;;;18.90;60.56;99583.22;5056600;28;19933;-83
2022/08/17 01:47:59;;;;;;;;;;;;;;;18.85;60.73;99586.00;5074390;28;19982;-83
2022/08/17 01:50:27;;;;;;;;;;;;;;;18.83;60.80;99582.75;5073895;28;20178;-82
2022/08/17 01:52:59;;;;;;;;;;;;;;;18.78;61.09;99586.31;5073832;28;19928;-81
2022/08/17 01:55:28;;;;;;;;;;;;;;;18.77;61.28;99583.88;5072677;28;20284;-82
2022/08/17 01:57:55;;;;;;;;;;;;;;;18.73;61.39;99589.06;5072693;28;19940;-82
2022/08/17 02:00:26;;;;;;;;;;;;;;;18.67;61.63;99583.94;5073337;28;19928;-82
2022/08/17 02:03:13;;;;;;;;;;;;;;;18.63;61.67;99584.50;5073758;28;19932;-83
2022/08/17 02:05:40;;;;;;;;;;;;;;;18.60;61.92;99584.25;5071698;28;20627;-82
2022/08/17 02:08:07;;;;;;;;;;;;;;;18.56;62.40;99588.63;5072290;28;19974;-82
2022/08/17 02:10:46;;;;;;;;;;;;;;;18.50;62.56;99587.84;5072709;28;19981;-82
2022/08/17 02:13:13;;;;;;;;;;;;;;;18.48;62.67;99589.22;5073409;28;19982;-82
2022/08/17 02:15:41;;;;;;;;;;;;;;;18.44;62.81;99590.91;5073471;28;19932;-82
2022/08/17 02:18:09;;;;;;;;;;;;;;;18.41;63.24;99586.81;5072362;28;20315;-83
2022/08/17 02:20:37;;;;;;;;;;;;;;;18.41;63.05;99589.56;5072986;28;19928;-83
2022/08/17 02:23:10;;;;;;;;;;;;;;;18.45;63.09;99592.53;5073291;28;19928;-82
2022/08/17 02:25:38;;;;;;;;;;;;;;;18.44;63.12;99597.19;5073033;28;20023;-82
2022/08/17 02:28:05;;;;;;;;;;;;;;;18.42;63.07;99582.97;5071917;28;19929;-82
2022/08/17 02:30:32;;;;;;;;;;;;;;;18.38;63.39;99599.13;5071640;28;19932;-81
2022/08/17 02:33:19;;;;;;;;;;;;;;;18.37;63.66;99599.41;5072935;28;19993;-83
2022/08/17 02:35:47;;;;;;;;;;;;;;;18.38;63.77;99596.41;5071731;28;19929;-82
2022/08/17 02:38:14;;;;;;;;;;;;;;;18.41;63.51;99592.28;5071180;28;19934;-83
2022/08/17 02:40:41;;;;;;;;;;;;;;;18.45;63.36;99587.06;5072677;28;20429;-82
2022/08/17 02:43:12;;;;;;;;;;;;;;;18.43;63.32;99592.81;5072464;28;19934;-83
2022/08/17 02:45:39;;;;;;;;;;;;;;;18.45;63.31;99601.53;5071517;28;19929;-82
2022/08/17 02:48:06;;;;;;;;;;;;;;;18.43;63.48;99590.06;5071634;28;20410;-82
2022/08/17 02:50:36;;;;;;;;;;;;;;;18.45;63.41;99590.59;5072225;28;19928;-83
2022/08/17 02:53:03;;;;;;;;;;;;;;;18.51;63.14;99591.38;5072636;28;20424;-83
2022/08/17 02:55:32;;;;;;;;;;;;;;;18.54;63.10;99590.84;5072362;28;19932;-83
2022/08/17 02:58:02;;;;;;;;;;;;;;;18.55;63.14;99587.81;5072255;28;19934;-82
2022/08/17 03:00:34;;;;;;;;;;;;;;;18.55;63.09;99587.00;5070968;28;19982;-82
2022/08/17 03:03:02;;;;;;;;;;;;;;;18.54;63.26;99591.66;5071314;28;19928;-83
2022/08/17 03:05:31;;;;;;;;;;;;;;;18.55;63.31;99592.47;5070896;28;19997;-82
2022/08/17 03:08:01;;;;;;;;;;;;;;;18.58;63.27;99590.00;5071345;28;19933;-83
2022/08/17 03:10:28;;;;;;;;;;;;;;;18.61;63.20;99594.09;5070770;28;19932;-82
2022/08/17 03:12:55;;;;;;;;;;;;;;;18.66;63.16;99598.69;5072413;28;19929;-83
2022/08/17 03:15:24;;;;;;;;;;;;;;;18.69;62.96;99598.13;5071847;28;19928;-83
2022/08/17 03:17:52;;;;;;;;;;;;;;;18.73;62.93;99599.19;5051513;28;20023;-82
2022/08/17 03:20:19;;;;;;;;;;;;;;;18.75;62.85;99591.53;5039911;28;19929;-81
2022/08/17 03:22:47;;;;;;;;;;;;;;;18.79;62.83;99593.44;5049244;28;20308;-82
2022/08/17 03:25:29;;;;;;;;;;;;;;;18.84;62.74;99592.59;5031859;28;19929;-82
2022/08/17 03:27:56;;;;;;;;;;;;;;;18.88;62.63;99592.81;5032192;28;19932;-82
2022/08/17 03:30:24;;;;;;;;;;;;;;;18.92;62.55;99591.97;5031791;28;19929;-83
2022/08/17 03:32:53;;;;;;;;;;;;;;;18.96;62.42;99594.94;5030988;28;20019;-83
2022/08/17 03:35:21;;;;;;;;;;;;;;;18.98;62.29;99588.09;5032123;28;19960;-82
2022/08/17 03:37:48;;;;;;;;;;;;;;;19.02;62.21;99586.41;5030892;28;20303;-83
2022/08/17 03:40:29;;;;;;;;;;;;;;;19.08;62.08;99589.13;5031776;28;19929;-83
2022/08/17 03:43:25;;;;;;;;;;;;;;;19.15;61.96;99590.41;5034333;28;19935;-83
2022/08/17 03:57:15;;;;;;;;;;;;;;;19.53;60.70;99601.56;5052441;28;19928;-81
2022/08/17 03:59:44;;;;;;;;;;;;;;;19.62;60.63;99599.00;5056028;28;19944;-82
2022/08/17 04:02:23;;;;;;;;;;;;;;;19.68;60.25;99600.63;5054930;28;19932;-82
2022/08/17 04:04:51;;;;;;;;;;;;;;;19.78;60.13;99597.75;5078462;28;19990;-81
2022/08/17 04:07:27;;;;;;;;;;;;;;;19.88;59.67;99603.13;5052160;28;19936;-81
2022/08/17 04:09:54;;;;;;;;;;;;;;;19.97;59.49;99600.53;5047494;28;19932;-82
2022/08/17 04:12:21;;;;;;;;;;;;;;;20.08;59.46;99595.78;5047602;28;19929;-82
2022/08/17 04:14:48;;;;;;;;;;;;;;;20.10;59.34;99596.28;5050919;28;19929;-83
2022/08/17 04:17:21;;;;;;;;;;;;;;;20.18;59.38;99595.66;5051160;28;19929;-83
2022/08/17 04:19:49;;;;;;;;;;;;;;;20.24;58.98;99596.41;5049592;28;20350;-83
2022/08/17 04:22:22;;;;;;;;;;;;;;;20.24;58.93;99596.41;5051128;28;19932;-84
2022/08/17 04:25:04;;;;;;;;;;;;;;;20.21;58.88;99597.81;5049978;28;20378;-81
2022/08/17 04:27:31;;;;;;;;;;;;;;;20.23;58.73;99586.53;5051023;28;19998;-82
2022/08/17 04:29:58;;;;;;;;;;;;;;;20.31;58.49;99592.19;5051075;28;19933;-83
2022/08/17 04:32:25;;;;;;;;;;;;;;;20.42;58.34;99594.78;5050860;28;20040;-84
2022/08/17 04:35:16;;;;;;;;;;;;;;;20.53;58.11;99601.75;5051135;28;19933;-83
2022/08/17 04:37:43;;;;;;;;;;;;;;;20.61;57.64;99592.06;5051056;28;20055;-84
2022/08/17 04:43:06;;;;;;;;;;;;;;;20.62;57.45;99591.78;5049989;28;19932;-83
2022/08/17 04:45:33;;;;;;;;;;;;;;;20.58;57.11;99593.47;5049466;28;19928;-83
2022/08/17 04:48:01;;;;;;;;;;;;;;;20.56;57.02;99590.22;5049839;28;19928;-83
2022/08/17 04:50:28;;;;;;;;;;;;;;;20.63;56.93;99596.13;5050657;28;19940;-83
2022/08/17 04:52:55;;;;;;;;;;;;;;;20.67;56.42;99588.16;5050478;28;20311;-83
2022/08/17 04:55:23;;;;;;;;;;;;;;;20.75;56.39;99593.75;5050907;28;19928;-83
2022/08/17 04:57:50;;;;;;;;;;;;;;;20.86;56.26;99582.63;5050619;28;19991;-83
2022/08/17 05:00:17;;;;;;;;;;;;;;;20.97;56.03;99589.59;5049668;28;20399;-83
2022/08/17 05:02:46;;;;;;;;;;;;;;;21.09;55.71;99589.13;5052817;28;19929;-83
2022/08/17 05:05:20;;;;;;;;;;;;;;;21.16;55.37;99595.03;5054588;28;19935;-84
2022/08/17 05:07:47;;;;;;;;;;;;;;;21.18;55.72;99585.38;5054516;28;19979;-84
2022/08/17 05:10:14;;;;;;;;;;;;;;;21.27;55.70;99584.69;5054636;28;20035;-83
2022/08/17 05:12:40;;;;;;;;;;;;;;;21.46;55.18;99590.97;5054419;28;20403;-84
2022/08/17 05:15:14;;;;;;;;;;;;;;;21.59;55.01;99584.69;5053067;28;19994;-84
2022/08/17 05:17:42;;;;;;;;;;;;;;;21.69;54.45;99582.88;4700790;28;10000442;-81
2022/08/17 05:20:09;;;;;;;;;;;;;;;21.80;54.41;99579.63;5038374;28;20220;-82
2022/08/17 05:22:45;;;;;;;;;;;;;;;21.94;53.91;99585.09;5042813;28;20052;-84
2022/08/17 05:25:31;;;;;;;;;;;;;;;22.07;53.87;99581.53;5035993;28;19936;-84
2022/08/17 05:28:03;;;;;;;;;;;;;;;22.16;53.50;99575.34;5039842;28;19929;-83
2022/08/17 05:30:32;;;;;;;;;;;;;;;22.25;53.26;99579.00;5038830;28;19936;-84
2022/08/17 05:33:06;;;;;;;;;;;;;;;22.32;52.68;99568.41;5030967;28;20451;-84
2022/08/17 05:35:34;;;;;;;;;;;;;;;22.40;52.22;99564.09;5028914;28;20031;-84
2022/08/17 05:38:01;;;;;;;;;;;;;;;22.44;51.54;99576.13;5031275;28;19929;-83
2022/08/17 05:40:28;;;;;;;;;;;;;;;22.50;51.37;99567.44;5036908;28;19928;-84
2022/08/17 05:43:06;;;;;;;;;;;;;;;22.59;51.07;99567.53;5040523;28;19987;-83
2022/08/17 05:45:33;;;;;;;;;;;;;;;22.65;50.56;99568.22;5047813;28;20415;-85
2022/08/17 05:48:20;;;;;;;;;;;;;;;22.71;50.69;99564.19;5031845;28;20007;-84
2022/08/17 05:51:20;;;;;;;;;;;;;;;22.81;50.55;99563.94;5039185;28;20304;-89
2022/08/17 05:54:11;;;;;;;;;;;;;;;22.96;50.45;99556.47;5035628;28;19929;-84
2022/08/17 05:57:11;;;;;;;;;;;;;;;23.00;50.35;99557.50;5029218;28;20392;-85
2022/08/17 05:59:44;;;;;;;;;;;;;;;22.98;49.94;99557.00;5033343;28;19940;-84
2022/08/17 06:02:32;;;;;;;;;;;;;;;23.10;49.70;99562.75;5029497;28;19929;-84
2022/08/17 06:05:14;;;;;;;;;;;;;;;23.25;49.10;99556.03;5040621;28;19982;-88
2022/08/17 06:07:44;;;;;;;;;;;;;;;23.35;49.05;99564.84;5043679;28;20342;-85
2022/08/17 06:10:17;;;;;;;;;;;;;;;23.51;48.82;99567.97;5047895;28;20063;-84
2022/08/17 06:12:53;;;;;;;;;;;;;;;23.67;48.18;99562.06;5041441;28;19983;-86
2022/08/17 06:15:29;;;;;;;;;;;;;;;23.75;47.55;99566.81;5039123;28;19929;-85
2022/08/17 06:17:58;;;;;;;;;;;;;;;23.83;47.36;99568.81;5032812;28;20333;-86
2022/08/17 06:20:26;;;;;;;;;;;;;;;23.94;47.25;99567.38;5048641;28;19928;-83
2022/08/17 06:22:57;;;;;;;;;;;;;;;24.11;46.97;99565.81;5047568;28;19929;-86
2022/08/17 06:25:32;;;;;;;;;;;;;;;24.15;46.21;99567.56;5041795;28;20382;-84
2022/08/17 06:28:02;;;;;;;;;;;;;;;24.34;46.25;99566.50;5028273;28;19941;-85
2022/08/17 06:30:29;;;;;;;;;;;;;;;24.52;45.72;99565.41;5028821;28;19932;-84
2022/08/17 06:33:21;;;;;;;;;;;;;;;24.69;45.56;99569.28;5050983;28;20230;-83
2022/08/17 06:36:03;;;;;;;;;;;;;;;24.73;45.48;99570.25;5025374;28;20313;-85
2022/08/17 06:38:47;;;;;;;;;;;;;;;24.79;44.88;99568.97;5049248;28;20065;-83
2022/08/17 06:41:16;;;;;;;;;;;;;;;24.87;44.70;99563.44;5049080;28;20564;-85
2022/08/17 06:43:52;;;;;;;;;;;;;;;25.04;44.63;99570.91;5048528;28;19995;-86
2022/08/17 06:46:32;;;;;;;;;;;;;;;25.16;44.68;99567.47;5032009;28;20038;-88
2022/08/17 06:48:59;;;;;;;;;;;;;;;25.27;44.05;99565.19;5033107;28;19940;-85
2022/08/17 06:51:28;;;;;;;;;;;;;;;25.45;43.89;99564.00;5044808;28;20291;-84
2022/08/17 06:54:03;;;;;;;;;;;;;;;25.56;43.58;99563.63;5050954;28;20363;-83
2022/08/17 06:56:39;;;;;;;;;;;;;;;25.65;43.23;99573.50;5052144;28;19929;-85
2022/08/17 06:59:23;;;;;;;;;;;;;;;25.72;43.32;99568.25;5051339;28;19932;-86
2022/08/17 07:01:51;;;;;;;;;;;;;;;25.82;43.01;99555.22;5049628;28;19932;-85
2022/08/17 07:04:20;;;;;;;;;;;;;;;25.94;43.03;99558.91;5048066;28;19975;-83
2022/08/17 07:06:51;;;;;;;;;;;;;;;26.04;42.91;99556.94;5050661;28;20352;-86
2022/08/17 07:09:23;;;;;;;;;;;;;;;26.01;42.61;99565.91;5034672;28;20425;-84
2022/08/17 07:11:52;;;;;;;;;;;;;;;26.03;42.41;99560.81;5034134;28;20467;-84
2022/08/17 07:14:38;;;;;;;;;;;;;;;26.09;41.90;99557.53;5047372;28;19929;-84
2022/08/17 07:17:12;;;;;;;;;;;;;;;25.90;41.85;99557.16;5025949;28;19935;-85
2022/08/17 07:19:44;;;;;;;;;;;;;;;25.90;41.36;99552.47;5045810;28;19929;-83
2022/08/17 07:22:17;;;;;;;;;;;;;;;26.09;41.33;99552.00;5041039;28;20376;-86
2022/08/17 07:25:02;;;;;;;;;;;;;;;26.35;40.98;99553.78;5044313;28;19928;-84
2022/08/17 07:27:40;;;;;;;;;;;;;;;26.48;40.45;99549.13;5049291;28;19932;-85
2022/08/17 07:30:15;;;;;;;;;;;;;;;26.62;40.47;99549.72;5052110;28;20510;-86
2022/08/17 07:32:51;;;;;;;;;;;;;;;26.72;40.19;99548.50;5042941;28;19929;-85
2022/08/17 07:35:28;;;;;;;;;;;;;;;26.86;39.76;99540.69;5041457;28;19929;-84
2022/08/17 07:38:14;;;;;;;;;;;;;;;27.00;39.33;99543.97;5035298;28;19971;-84
2022/08/17 07:40:56;;;;;;;;;;;;;;;27.12;39.45;99537.66;5047863;28;19929;-86
2022/08/17 07:43:39;;;;;;;;;;;;;;;27.34;38.73;99524.56;5045317;28;19933;-85
2022/08/17 07:48:57;;;;;;;;;;;;;;;27.68;38.11;99531.66;5040324;28;20001;-84
2022/08/17 07:51:25;;;;;;;;;;;;;;;27.82;37.44;99503.59;5054961;28;19951;-86
2022/08/17 07:53:58;;;;;;;;;;;;;;;27.84;37.19;99513.19;5044194;28;19939;-85
2022/08/17 07:56:43;;;;;;;;;;;;;;;27.88;37.41;99518.88;5042872;28;19929;-87
2022/08/17 07:59:23;;;;;;;;;;;;;;;28.03;37.36;99520.94;5035133;28;19939;-88
2022/08/17 08:01:53;;;;;;;;;;;;;;;28.23;37.19;99523.88;5027125;28;20028;-86
2022/08/17 08:04:28;;;;;;;;;;;;;;;28.28;36.65;99530.00;5050209;28;20403;-85
2022/08/17 08:07:15;;;;;;;;;;;;;;;28.34;35.56;99522.25;5047281;28;19987;-83
2022/08/17 08:09:45;;;;;;;;;;;;;;;28.48;35.87;99527.44;5041185;28;19991;-85
2022/08/17 08:12:22;;;;;;;;;;;;;;;28.67;35.75;99518.47;5050312;28;20421;-85
2022/08/17 08:14:57;;;;;;;;;;;;;;;28.95;35.01;99529.56;5045566;28;19928;-83
2022/08/17 08:17:34;;;;;;;;;;;;;;;29.19;34.85;99534.19;5045125;28;19936;-84
2022/08/17 08:20:07;;;;;;;;;;;;;;;29.51;34.77;99523.09;5042203;28;19933;-83
2022/08/17 08:23:10;;;;;;;;;;;;;;;29.60;33.79;99526.50;5032573;28;19936;-82
2022/08/17 08:25:48;;;;;;;;;;;;;;;29.69;33.08;99518.81;5038213;28;19943;-83
2022/08/17 08:28:22;;;;;;;;;;;;;;;29.73;33.35;99516.94;5032249;28;20028;-83
2022/08/17 08:30:51;;;;;;;;;;;;;;;29.83;32.75;99523.91;5035384;28;19929;-84
2022/08/17 08:33:24;;;;;;;;;;;;;;;30.11;32.28;99517.41;5045913;28;19929;-86
2022/08/17 08:35:52;;;;;;;;;;;;;;;30.40;31.69;99525.22;5034109;28;19929;-85
2022/08/17 08:38:33;;;;;;;;;;;;;;;30.56;31.56;99519.59;5051290;28;19947;-83
2022/08/17 08:41:05;;;;;;;;;;;;;;;30.66;31.21;99521.78;5053999;28;20376;-85
2022/08/17 08:43:50;;;;;;;;;;;;;;;30.79;31.25;99518.81;5053769;28;19933;-85
2022/08/17 08:46:25;;;;;;;;;;;;;;;31.15;31.08;99514.78;5053883;28;20411;-84
2022/08/17 08:49:05;;;;;;;;;;;;;;;31.34;30.43;99508.34;5053550;28;19929;-84
2022/08/17 08:51:56;;;;;;;;;;;;;;;31.55;30.34;99502.34;5053215;28;20027;-83
2022/08/17 08:54:33;;;;;;;;;;;;;;;31.82;30.12;99508.75;5053661;28;19929;-82
2022/08/17 08:57:07;;;;;;;;;;;;;;;32.13;29.87;99499.25;5054180;28;19932;-83
2022/08/17 08:59:55;;;;;;;;;;;;;;;32.34;29.62;99506.31;5028186;28;19936;-82
2022/08/17 09:02:27;;;;;;;;;;;;;;;32.26;29.13;99505.41;5037333;28;19936;-83
2022/08/17 09:05:13;;;;;;;;;;;;;;;32.51;29.03;99502.97;5048499;28;19972;-85
2022/08/17 09:07:41;;;;;;;;;;;;;;;32.74;28.57;99507.59;5050475;28;19935;-84
2022/08/17 09:10:24;;;;;;;;;;;;;;;32.95;27.98;99504.25;5045035;28;20362;-83
2022/08/17 09:13:06;;;;;;;;;;;;;;;33.33;27.95;99499.47;5039609;28;19956;-83
2022/08/17 09:15:38;;;;;;;;;;;;;;;33.31;27.66;99504.63;5044308;28;20062;-85
2022/08/17 09:18:32;;;;;;;;;;;;;;;33.11;27.86;99493.66;5036559;28;20450;-88
2022/08/17 09:21:23;;;;;;;;;;;;;;;33.13;27.62;99496.88;5045567;28;20019;-85
2022/08/17 09:24:03;;;;;;;;;;;;;;;33.37;27.88;99500.28;5044374;28;19929;-84
2022/08/17 09:26:34;;;;;;;;;;;;;;;33.87;27.63;99495.91;5049679;28;19979;-84
2022/08/17 09:29:05;;;;;;;;;;;;;;;33.99;27.14;99482.78;5033383;28;20027;-87
2022/08/17 09:31:35;;;;;;;;;;;;;;;34.04;27.09;99497.19;5046524;28;19929;-88
2022/08/17 09:34:17;;;;;;;;;;;;;;;34.40;26.60;99503.00;4682503;28;10000525;-89
2022/08/17 09:37:07;;;;;;;;;;;;;;;34.38;26.25;99496.19;5031171;28;19929;-91
2022/08/17 09:39:54;;;;;;;;;;;;;;;34.59;25.95;99489.91;5038590;28;19928;-91
2022/08/17 09:42:32;;;;;;;;;;;;;;;34.93;25.76;99487.59;5015813;28;19975;-93
2022/08/17 09:45:00;;;;;;;;;;;;;;;34.89;25.51;99490.41;5049442;28;19937;-92
2022/08/17 09:47:35;;;;;;;;;;;;;;;35.18;25.23;99493.28;5052177;28;20023;-91
2022/08/17 09:50:05;;;;;;;;;;;;;;;35.42;25.14;99482.44;5033606;28;19974;-91
2022/08/17 09:52:32;;;;;;;;;;;;;;;35.41;25.67;99490.06;5034209;28;19928;-91
2022/08/17 09:55:00;;;;;;;;;;;;;;;35.39;25.37;99482.03;5049697;28;19928;-89
2022/08/17 09:57:36;;;;;;;;;;;;;;;35.38;25.30;99490.88;5042385;28;20010;-90
2022/08/17 10:00:15;;;;;;;;;;;;;;;35.59;24.95;99484.47;5045664;28;19976;-87
2022/08/17 10:02:52;;;;;;;;;;;;;;;35.52;24.38;99485.25;5040117;28;19928;-89
2022/08/17 10:05:40;;;;;;;;;;;;;;;36.13;23.97;99476.75;5043908;28;19935;-87
2022/08/17 10:08:41;;;;;;;;;;;;;;;36.21;23.38;99480.34;5009721;28;20021;-87
2022/08/17 10:14:19;;;;;;;;;;;;;;;36.37;22.78;99477.09;5049519;28;20015;-86
2022/08/17 10:17:19;;;;;;;;;;;;;;;35.35;23.43;99486.06;5063475;28;20372;-87
2022/08/17 10:20:04;;;;;;;;;;;;;;;34.98;23.75;99481.59;5050428;28;19959;-87
2022/08/17 10:28:36;;;;;;;;;;;;;;;36.28;23.28;99482.34;5049034;28;20362;-87
2022/08/17 10:31:04;;;;;;;;;;;;;;;36.36;22.88;99478.28;5016169;28;19928;-89
2022/08/17 10:34:04;;;;;;;;;;;;;;;36.81;22.56;99470.06;5049850;28;20038;-87
2022/08/17 10:36:37;;;;;;;;;;;;;;;37.07;22.50;99463.88;5050703;28;19935;-86
2022/08/17 10:39:19;;;;;;;;;;;;;;;37.17;22.42;99462.22;5001048;28;19988;-87
2022/08/17 10:41:49;;;;;;;;;;;;;;;37.57;21.89;99461.88;5044571;28;20331;-86
2022/08/17 10:44:41;;;;;;;;;;;;;;;37.53;21.97;99461.94;5041029;28;20381;-83
2022/08/17 10:47:09;;;;;;;;;;;;;;;37.61;21.80;99457.03;5033668;28;19991;-86
2022/08/17 10:49:46;;;;;;;;;;;;;;;37.76;21.52;99452.84;5049239;28;19964;-88
2022/08/17 10:52:24;;;;;;;;;;;;;;;37.85;21.22;99450.31;5044514;28;19929;-90
2022/08/17 10:54:57;;;;;;;;;;;;;;;38.17;21.21;99449.97;5033132;28;19929;-88
2022/08/17 10:57:35;;;;;;;;;;;;;;;37.91;21.13;99450.69;5033577;28;19936;-88
2022/08/17 11:00:15;;;;;;;;;;;;;;;37.94;21.25;99447.81;5058111;28;19960;-88
2022/08/17 11:02:48;;;;;;;;;;;;;;;38.16;21.19;99453.25;5032373;28;20028;-88
2022/08/17 11:05:34;;;;;;;;;;;;;;;38.28;20.79;99447.03;5034710;28;20044;-87
2022/08/17 11:08:27;;;;;;;;;;;;;;;37.94;20.75;99450.63;5037466;28;19957;-88
2022/08/17 11:10:54;;;;;;;;;;;;;;;37.89;21.19;99444.66;5036034;28;19979;-90
2022/08/17 11:13:25;;;;;;;;;;;;;;;38.37;20.80;99438.84;5058159;28;19932;-89
2022/08/17 11:15:52;;;;;;;;;;;;;;;38.52;20.38;99447.16;5048023;28;19929;-88
2022/08/17 11:18:31;;;;;;;;;;;;;;;38.82;20.10;99446.31;5038794;28;20043;-88
2022/08/17 11:21:27;;;;;;;;;;;;;;;38.98;20.01;99423.13;5029821;28;20367;-88
2022/08/17 11:24:14;;;;;;;;;;;;;;;38.59;20.39;99436.59;5014186;28;19969;-90
2022/08/17 11:26:45;;;;;;;;;;;;;;;38.57;20.23;99435.41;5009266;28;20017;-89
2022/08/17 11:29:17;;;;;;;;;;;;;;;38.07;20.39;99430.41;4987020;28;20329;-88
2022/08/17 11:31:46;;;;;;;;;;;;;;;38.08;20.46;99437.63;5008078;28;20347;-88
2022/08/17 11:34:17;;;;;;;;;;;;;;;38.62;20.20;99439.78;4991852;28;19929;-88
2022/08/17 11:36:47;;;;;;;;;;;;;;;38.47;20.05;99439.19;5010168;28;20016;-89
2022/08/17 11:39:34;;;;;;;;;;;;;;;38.56;20.09;99437.41;5009372;28;19929;-90
2022/08/17 11:42:06;;;;;;;;;;;;;;;38.67;19.45;99428.81;4932723;29;20409;-88
2022/08/17 11:44:39;;;;;;;;;;;;;;;38.71;19.68;99428.75;4942515;29;20033;-87
2022/08/17 11:52:56;;;;;;;;;;;;;;;39.27;19.02;99419.81;4938062;29;20041;-89
2022/08/17 11:55:31;;;;;;;;;;;;;;;39.20;19.27;99412.28;4934371;29;19978;-89
2022/08/17 11:58:26;;;;;;;;;;;;;;;39.27;18.81;99411.34;4940707;29;19931;-89
2022/08/17 12:00:56;;;;;;;;;;;;;;;39.65;18.77;99409.88;4979471;28;19936;-90
2022/08/17 12:03:32;;;;;;;;;;;;;;;39.42;19.26;99401.44;4996336;28;19930;-91
2022/08/17 12:06:08;;;;;;;;;;;;;;;38.92;19.16;99405.06;5006869;28;19930;-89
2022/08/17 12:08:40;;;;;;;;;;;;;;;38.10;19.67;99393.72;5005946;28;19953;-90
2022/08/17 12:11:11;;;;;;;;;;;;;;;38.08;19.81;99392.53;5012645;28;19929;-90
2022/08/17 12:13:45;;;;;;;;;;;;;;;38.36;19.58;99406.28;5000139;28;19941;-88
2022/08/17 12:16:18;;;;;;;;;;;;;;;38.60;19.52;99389.44;5011099;28;19975;-88
2022/08/17 12:18:49;;;;;;;;;;;;;;;38.69;19.34;99392.53;4978777;28;20334;-89
2022/08/17 12:21:16;;;;;;;;;;;;;;;38.58;19.42;99395.50;5040644;28;19933;-88
2022/08/17 12:24:05;;;;;;;;;;;;;;;38.57;19.34;99393.91;5042572;28;19947;-86
2022/08/17 12:26:34;;;;;;;;;;;;;;;38.80;19.06;99393.16;5029114;28;20255;-86
2022/08/17 12:29:02;;;;;;;;;;;;;;;39.19;19.15;99385.28;5047131;28;19940;-87
2022/08/17 12:31:49;;;;;;;;;;;;;;;39.77;18.88;99388.66;5037811;28;19929;-87
2022/08/17 12:34:17;;;;;;;;;;;;;;;40.08;18.09;99388.44;5037652;28;19977;-86
2022/08/17 12:36:45;;;;;;;;;;;;;;;39.83;18.05;99386.13;5045005;28;19929;-87
2022/08/17 12:39:16;;;;;;;;;;;;;;;40.15;18.09;99382.66;5019315;28;19933;-88
2022/08/17 12:41:48;;;;;;;;;;;;;;;40.30;17.84;99375.47;5042240;28;19928;-86
2022/08/17 12:44:17;;;;;;;;;;;;;;;39.80;18.00;99379.34;5050245;28;20015;-87
2022/08/17 12:46:49;;;;;;;;;;;;;;;39.55;18.79;99393.13;5044470;28;19936;-87
2022/08/17 12:49:23;;;;;;;;;;;;;;;39.54;18.54;99383.84;5060803;28;19929;-87
2022/08/17 12:51:50;;;;;;;;;;;;;;;40.03;18.37;99372.00;5045249;28;20512;-87
2022/08/17 12:54:36;;;;;;;;;;;;;;;39.98;18.38;99373.31;5040859;28;19929;-88
2022/08/17 12:57:04;;;;;;;;;;;;;;;39.90;18.06;99371.88;5043529;28;19983;-85
2022/08/17 12:59:32;;;;;;;;;;;;;;;39.50;18.26;99377.47;5051812;28;19933;-88
2022/08/17 13:01:59;;;;;;;;;;;;;;;39.02;18.94;99378.72;5038449;28;19980;-91
2022/08/17 13:04:27;;;;;;;;;;;;;;;38.63;18.96;99368.84;5042044;28;19929;-87
2022/08/17 13:06:56;;;;;;;;;;;;;;;38.67;19.21;99374.44;5030872;28;19933;-86
2022/08/17 13:09:28;;;;;;;;;;;;;;;38.59;19.20;99368.91;5030603;28;19935;-88
2022/08/17 13:12:05;;;;;;;;;;;;;;;38.95;18.75;99373.22;5038318;28;20310;-87
2022/08/17 13:14:34;;;;;;;;;;;;;;;38.64;18.85;99364.81;5040807;28;19975;-90
2022/08/17 13:17:03;;;;;;;;;;;;;;;38.25;19.26;99365.34;5056058;28;20012;-88
2022/08/17 13:19:38;;;;;;;;;;;;;;;37.73;19.55;99369.22;5038525;28;20015;-88
2022/08/17 13:22:09;;;;;;;;;;;;;;;37.79;19.73;99369.53;5045462;28;19943;-85
2022/08/17 13:24:36;;;;;;;;;;;;;;;38.20;19.29;99372.25;5017134;28;19999;-86
2022/08/17 13:27:07;;;;;;;;;;;;;;;38.63;19.33;99366.03;5033964;28;19933;-88
2022/08/17 13:29:38;;;;;;;;;;;;;;;39.18;18.37;99364.72;5053642;28;19937;-87
2022/08/17 13:32:05;;;;;;;;;;;;;;;39.42;18.34;99376.03;5045972;28;19943;-88
2022/08/17 13:34:46;;;;;;;;;;;;;;;39.81;18.15;99368.84;5036843;28;19937;-87
2022/08/17 13:37:34;;;;;;;;;;;;;;;40.43;17.54;99367.09;5044992;28;19929;-88
2022/08/17 13:40:10;;;;;;;;;;;;;;;40.81;17.65;99366.63;5050127;28;19939;-89
2022/08/17 13:42:43;;;;;;;;;;;;;;;41.09;17.18;99372.84;5045331;28;19951;-88
2022/08/17 13:45:31;;;;;;;;;;;;;;;41.22;16.78;99375.72;5045799;28;20032;-93
2022/08/17 13:48:06;;;;;;;;;;;;;;;41.39;16.75;99362.34;5042615;28;20295;-87
2022/08/17 13:50:37;;;;;;;;;;;;;;;41.82;16.64;99373.28;5033596;28;19929;-89
2022/08/17 13:53:25;;;;;;;;;;;;;;;41.72;16.48;99361.03;5037297;28;19929;-88